sensor_id;sensor_type;location;lat;lon;timestamp;P1;durP1;ratioP1;P2;durP2;ratioP2
58152;SDS011;43967;51.634;5.566;2023-01-28T00:03:50;5.90;;;1.83;;
58152;SDS011;43967;51.634;5.566;2023-01-28T00:08:51;5.50;;;1.90;;
58152;SDS011;43967;51.634;5.566;2023-01-28T00:13:53;5.80;;;2.20;;
58152;SDS011;43967;51.634;5.566;2023-01-28T00:18:59;6.07;;;1.73;;
58152;SDS011;43967;51.634;5.566;2023-01-28T00:24:00;6.00;;;1.70;;
58152;SDS011;43967;51.634;5.566;2023-01-28T00:29:02;6.80;;;1.83;;
58152;SDS011;43967;51.634;5.566;2023-01-28T00:34:03;5.77;;;1.93;;
58152;SDS011;43967;51.634;5.566;2023-01-28T00:39:04;6.32;;;2.13;;
58152;SDS011;43967;51.634;5.566;2023-01-28T00:44:07;6.72;;;2.05;;
58152;SDS011;43967;51.634;5.566;2023-01-28T00:49:08;6.10;;;1.93;;
58152;SDS011;43967;51.634;5.566;2023-01-28T00:54:12;5.55;;;2.05;;
58152;SDS011;43967;51.634;5.566;2023-01-28T00:59:14;5.80;;;2.00;;
58152;SDS011;43967;51.634;5.566;2023-01-28T01:04:15;6.63;;;2.00;;
58152;SDS011;43967;51.634;5.566;2023-01-28T01:09:16;6.30;;;2.20;;
58152;SDS011;43967;51.634;5.566;2023-01-28T01:14:17;5.93;;;1.85;;
58152;SDS011;43967;51.634;5.566;2023-01-28T01:19:18;5.73;;;2.37;;
58152;SDS011;43967;51.634;5.566;2023-01-28T01:24:19;6.73;;;2.10;;
58152;SDS011;43967;51.634;5.566;2023-01-28T01:29:20;5.82;;;1.92;;
58152;SDS011;43967;51.634;5.566;2023-01-28T01:34:21;6.28;;;2.00;;
58152;SDS011;43967;51.634;5.566;2023-01-28T01:39:22;6.43;;;2.13;;
58152;SDS011;43967;51.634;5.566;2023-01-28T01:49:49;5.18;;;1.60;;
58152;SDS011;43967;51.634;5.566;2023-01-28T01:54:51;6.80;;;1.80;;
58152;SDS011;43967;51.634;5.566;2023-01-28T01:59:56;5.35;;;1.75;;
58152;SDS011;43967;51.634;5.566;2023-01-28T02:04:59;5.68;;;1.88;;
58152;SDS011;43967;51.634;5.566;2023-01-28T02:10:00;5.73;;;2.00;;
58152;SDS011;43967;51.634;5.566;2023-01-28T02:15:09;5.93;;;1.80;;
58152;SDS011;43967;51.634;5.566;2023-01-28T02:20:18;7.60;;;2.20;;
58152;SDS011;43967;51.634;5.566;2023-01-28T02:25:50;10.15;;;2.30;;
58152;SDS011;43967;51.634;5.566;2023-01-28T02:31:10;12.93;;;2.10;;
58152;SDS011;43967;51.634;5.566;2023-01-28T02:36:24;20.58;;;3.33;;
58152;SDS011;43967;51.634;5.566;2023-01-28T02:41:33;7.43;;;2.30;;
58152;SDS011;43967;51.634;5.566;2023-01-28T02:46:40;7.67;;;2.43;;
58152;SDS011;43967;51.634;5.566;2023-01-28T02:51:51;7.35;;;2.10;;
58152;SDS011;43967;51.634;5.566;2023-01-28T03:02:32;5.77;;;2.07;;
58152;SDS011;43967;51.634;5.566;2023-01-28T03:07:40;6.73;;;2.17;;
58152;SDS011;43967;51.634;5.566;2023-01-28T03:12:41;5.63;;;2.00;;
58152;SDS011;43967;51.634;5.566;2023-01-28T03:17:48;6.68;;;2.20;;
58152;SDS011;43967;51.634;5.566;2023-01-28T03:23:02;6.17;;;1.70;;
58152;SDS011;43967;51.634;5.566;2023-01-28T03:28:09;6.05;;;1.98;;
58152;SDS011;43967;51.634;5.566;2023-01-28T03:33:14;6.13;;;1.80;;
58152;SDS011;43967;51.634;5.566;2023-01-28T03:38:16;5.03;;;1.67;;
58152;SDS011;43967;51.634;5.566;2023-01-28T03:43:19;6.15;;;1.63;;
58152;SDS011;43967;51.634;5.566;2023-01-28T03:48:24;9.93;;;1.77;;
58152;SDS011;43967;51.634;5.566;2023-01-28T03:53:26;5.10;;;1.60;;
58152;SDS011;43967;51.634;5.566;2023-01-28T03:58:27;5.50;;;2.00;;
58152;SDS011;43967;51.634;5.566;2023-01-28T04:03:28;5.68;;;1.83;;
58152;SDS011;43967;51.634;5.566;2023-01-28T04:08:29;5.53;;;1.52;;
58152;SDS011;43967;51.634;5.566;2023-01-28T04:13:31;4.90;;;1.70;;
58152;SDS011;43967;51.634;5.566;2023-01-28T04:18:32;6.97;;;1.73;;
58152;SDS011;43967;51.634;5.566;2023-01-28T04:23:33;4.70;;;1.48;;
58152;SDS011;43967;51.634;5.566;2023-01-28T04:28:35;5.43;;;1.77;;
58152;SDS011;43967;51.634;5.566;2023-01-28T04:33:36;5.18;;;1.65;;
58152;SDS011;43967;51.634;5.566;2023-01-28T04:38:37;5.25;;;1.83;;
58152;SDS011;43967;51.634;5.566;2023-01-28T04:43:38;4.97;;;1.60;;
58152;SDS011;43967;51.634;5.566;2023-01-28T04:48:39;5.37;;;2.00;;
58152;SDS011;43967;51.634;5.566;2023-01-28T04:53:40;5.80;;;1.80;;
58152;SDS011;43967;51.634;5.566;2023-01-28T04:58:41;5.20;;;1.70;;
58152;SDS011;43967;51.634;5.566;2023-01-28T05:03:42;5.23;;;1.43;;
58152;SDS011;43967;51.634;5.566;2023-01-28T05:08:43;5.18;;;1.70;;
58152;SDS011;43967;51.634;5.566;2023-01-28T05:13:44;4.47;;;1.30;;
58152;SDS011;43967;51.634;5.566;2023-01-28T05:18:45;4.60;;;1.30;;
58152;SDS011;43967;51.634;5.566;2023-01-28T05:23:46;5.00;;;1.60;;
58152;SDS011;43967;51.634;5.566;2023-01-28T05:28:47;5.40;;;1.65;;
58152;SDS011;43967;51.634;5.566;2023-01-28T05:33:48;4.97;;;1.87;;
58152;SDS011;43967;51.634;5.566;2023-01-28T05:38:49;5.35;;;1.83;;
58152;SDS011;43967;51.634;5.566;2023-01-28T05:43:50;4.72;;;1.52;;
58152;SDS011;43967;51.634;5.566;2023-01-28T05:48:51;6.37;;;1.97;;
58152;SDS011;43967;51.634;5.566;2023-01-28T05:53:52;4.57;;;1.58;;
58152;SDS011;43967;51.634;5.566;2023-01-28T05:58:53;4.75;;;1.50;;
58152;SDS011;43967;51.634;5.566;2023-01-28T06:03:54;4.67;;;1.50;;
58152;SDS011;43967;51.634;5.566;2023-01-28T06:08:55;4.90;;;1.67;;
58152;SDS011;43967;51.634;5.566;2023-01-28T06:13:56;5.03;;;1.35;;
58152;SDS011;43967;51.634;5.566;2023-01-28T06:18:57;4.73;;;1.37;;
58152;SDS011;43967;51.634;5.566;2023-01-28T06:23:58;4.67;;;1.47;;
58152;SDS011;43967;51.634;5.566;2023-01-28T06:28:59;4.82;;;1.50;;
58152;SDS011;43967;51.634;5.566;2023-01-28T06:34:00;4.80;;;1.40;;
58152;SDS011;43967;51.634;5.566;2023-01-28T06:39:01;5.17;;;1.87;;
58152;SDS011;43967;51.634;5.566;2023-01-28T06:44:03;5.03;;;1.90;;
58152;SDS011;43967;51.634;5.566;2023-01-28T06:49:04;5.28;;;1.80;;
58152;SDS011;43967;51.634;5.566;2023-01-28T06:54:05;5.33;;;1.80;;
58152;SDS011;43967;51.634;5.566;2023-01-28T06:59:06;5.30;;;1.73;;
58152;SDS011;43967;51.634;5.566;2023-01-28T07:04:07;4.85;;;1.45;;
58152;SDS011;43967;51.634;5.566;2023-01-28T07:09:08;6.23;;;1.90;;
58152;SDS011;43967;51.634;5.566;2023-01-28T07:14:09;6.07;;;2.17;;
58152;SDS011;43967;51.634;5.566;2023-01-28T07:19:10;5.13;;;1.80;;
58152;SDS011;43967;51.634;5.566;2023-01-28T07:24:11;6.70;;;2.40;;
58152;SDS011;43967;51.634;5.566;2023-01-28T07:29:12;7.03;;;1.97;;
58152;SDS011;43967;51.634;5.566;2023-01-28T07:34:13;5.32;;;1.98;;
58152;SDS011;43967;51.634;5.566;2023-01-28T07:39:14;8.38;;;1.83;;
58152;SDS011;43967;51.634;5.566;2023-01-28T07:44:15;12.00;;;1.80;;
58152;SDS011;43967;51.634;5.566;2023-01-28T07:49:16;5.43;;;1.45;;
58152;SDS011;43967;51.634;5.566;2023-01-28T07:54:17;5.10;;;1.42;;
58152;SDS011;43967;51.634;5.566;2023-01-28T07:59:18;5.23;;;1.40;;
58152;SDS011;43967;51.634;5.566;2023-01-28T08:04:19;5.75;;;1.60;;
58152;SDS011;43967;51.634;5.566;2023-01-28T08:09:20;5.10;;;1.85;;
58152;SDS011;43967;51.634;5.566;2023-01-28T08:14:21;5.57;;;1.97;;
58152;SDS011;43967;51.634;5.566;2023-01-28T08:19:22;15.30;;;2.20;;
58152;SDS011;43967;51.634;5.566;2023-01-28T08:24:23;7.30;;;1.90;;
58152;SDS011;43967;51.634;5.566;2023-01-28T08:29:24;8.40;;;2.00;;
58152;SDS011;43967;51.634;5.566;2023-01-28T08:34:25;6.45;;;1.50;;
58152;SDS011;43967;51.634;5.566;2023-01-28T08:39:26;8.57;;;1.65;;
58152;SDS011;43967;51.634;5.566;2023-01-28T08:44:28;7.10;;;1.60;;
58152;SDS011;43967;51.634;5.566;2023-01-28T08:49:29;9.30;;;1.57;;
58152;SDS011;43967;51.634;5.566;2023-01-28T08:54:30;7.43;;;1.95;;
58152;SDS011;43967;51.634;5.566;2023-01-28T08:59:32;12.50;;;1.98;;
58152;SDS011;43967;51.634;5.566;2023-01-28T09:04:33;9.17;;;1.97;;
58152;SDS011;43967;51.634;5.566;2023-01-28T09:09:34;11.48;;;1.73;;
58152;SDS011;43967;51.634;5.566;2023-01-28T09:14:35;8.38;;;1.70;;
58152;SDS011;43967;51.634;5.566;2023-01-28T09:19:36;6.37;;;1.60;;
58152;SDS011;43967;51.634;5.566;2023-01-28T09:24:37;8.02;;;1.80;;
58152;SDS011;43967;51.634;5.566;2023-01-28T09:29:38;8.55;;;1.90;;
58152;SDS011;43967;51.634;5.566;2023-01-28T09:34:39;6.30;;;1.63;;
58152;SDS011;43967;51.634;5.566;2023-01-28T09:39:40;6.53;;;1.80;;
58152;SDS011;43967;51.634;5.566;2023-01-28T09:45:15;6.38;;;1.70;;
58152;SDS011;43967;51.634;5.566;2023-01-28T09:50:16;20.00;;;2.08;;
58152;SDS011;43967;51.634;5.566;2023-01-28T09:55:24;10.27;;;1.87;;
58152;SDS011;43967;51.634;5.566;2023-01-28T10:22:38;6.32;;;2.25;;
58152;SDS011;43967;51.634;5.566;2023-01-28T10:27:48;6.23;;;2.40;;
58152;SDS011;43967;51.634;5.566;2023-01-28T10:32:52;7.67;;;2.60;;
58152;SDS011;43967;51.634;5.566;2023-01-28T10:38:04;7.93;;;2.97;;
58152;SDS011;43967;51.634;5.566;2023-01-28T10:43:08;8.55;;;2.55;;
58152;SDS011;43967;51.634;5.566;2023-01-28T10:48:24;7.43;;;2.53;;
58152;SDS011;43967;51.634;5.566;2023-01-28T10:53:33;8.00;;;2.67;;
58152;SDS011;43967;51.634;5.566;2023-01-28T10:58:56;7.90;;;2.13;;
58152;SDS011;43967;51.634;5.566;2023-01-28T11:04:00;8.37;;;2.63;;
58152;SDS011;43967;51.634;5.566;2023-01-28T11:09:01;6.88;;;2.30;;
58152;SDS011;43967;51.634;5.566;2023-01-28T11:14:02;10.13;;;2.30;;
58152;SDS011;43967;51.634;5.566;2023-01-28T11:19:03;7.40;;;2.07;;
58152;SDS011;43967;51.634;5.566;2023-01-28T11:24:16;7.03;;;2.00;;
58152;SDS011;43967;51.634;5.566;2023-01-28T11:34:28;5.88;;;1.80;;
58152;SDS011;43967;51.634;5.566;2023-01-28T11:39:32;5.90;;;1.60;;
58152;SDS011;43967;51.634;5.566;2023-01-28T11:44:33;6.50;;;1.90;;
58152;SDS011;43967;51.634;5.566;2023-01-28T11:54:53;5.57;;;2.00;;
58152;SDS011;43967;51.634;5.566;2023-01-28T11:59:58;9.85;;;1.77;;
58152;SDS011;43967;51.634;5.566;2023-01-28T12:16:10;5.33;;;1.70;;
58152;SDS011;43967;51.634;5.566;2023-01-28T12:21:41;5.35;;;1.58;;
58152;SDS011;43967;51.634;5.566;2023-01-28T12:43:44;11.85;;;2.50;;
58152;SDS011;43967;51.634;5.566;2023-01-28T12:48:48;8.27;;;2.43;;
58152;SDS011;43967;51.634;5.566;2023-01-28T12:54:11;8.80;;;2.00;;
58152;SDS011;43967;51.634;5.566;2023-01-28T12:59:30;8.15;;;1.70;;
58152;SDS011;43967;51.634;5.566;2023-01-28T13:15:35;6.75;;;1.70;;
58152;SDS011;43967;51.634;5.566;2023-01-28T13:20:52;6.78;;;2.10;;
58152;SDS011;43967;51.634;5.566;2023-01-28T13:25:53;7.17;;;1.90;;
58152;SDS011;43967;51.634;5.566;2023-01-28T13:31:11;6.30;;;1.60;;
58152;SDS011;43967;51.634;5.566;2023-01-28T13:46:49;6.40;;;1.67;;
58152;SDS011;43967;51.634;5.566;2023-01-28T13:51:56;6.55;;;1.60;;
58152;SDS011;43967;51.634;5.566;2023-01-28T14:19:32;5.63;;;1.50;;
58152;SDS011;43967;51.634;5.566;2023-01-28T14:24:38;5.25;;;1.70;;
58152;SDS011;43967;51.634;5.566;2023-01-28T14:29:45;5.40;;;1.38;;
58152;SDS011;43967;51.634;5.566;2023-01-28T14:35:04;6.00;;;1.50;;
58152;SDS011;43967;51.634;5.566;2023-01-28T14:40:11;6.63;;;1.90;;
58152;SDS011;43967;51.634;5.566;2023-01-28T15:00:54;9.48;;;2.40;;
58152;SDS011;43967;51.634;5.566;2023-01-28T15:06:13;11.23;;;3.03;;
58152;SDS011;43967;51.634;5.566;2023-01-28T15:11:18;12.10;;;2.10;;
58152;SDS011;43967;51.634;5.566;2023-01-28T15:16:26;8.88;;;2.47;;
58152;SDS011;43967;51.634;5.566;2023-01-28T15:21:28;7.95;;;1.80;;
58152;SDS011;43967;51.634;5.566;2023-01-28T15:26:30;9.23;;;1.90;;
58152;SDS011;43967;51.634;5.566;2023-01-28T15:31:34;6.78;;;1.90;;
58152;SDS011;43967;51.634;5.566;2023-01-28T15:36:35;9.43;;;1.95;;
58152;SDS011;43967;51.634;5.566;2023-01-28T15:41:37;6.93;;;2.00;;
58152;SDS011;43967;51.634;5.566;2023-01-28T15:46:41;8.33;;;2.07;;
58152;SDS011;43967;51.634;5.566;2023-01-28T15:51:42;7.03;;;1.92;;
58152;SDS011;43967;51.634;5.566;2023-01-28T15:56:48;8.60;;;2.20;;
58152;SDS011;43967;51.634;5.566;2023-01-28T16:01:50;7.23;;;1.80;;
58152;SDS011;43967;51.634;5.566;2023-01-28T16:06:51;7.32;;;2.00;;
58152;SDS011;43967;51.634;5.566;2023-01-28T16:12:00;7.53;;;2.00;;
58152;SDS011;43967;51.634;5.566;2023-01-28T16:17:15;7.23;;;2.30;;
58152;SDS011;43967;51.634;5.566;2023-01-28T16:22:32;8.02;;;1.95;;
58152;SDS011;43967;51.634;5.566;2023-01-28T16:27:38;6.95;;;1.80;;
58152;SDS011;43967;51.634;5.566;2023-01-28T16:32:39;5.80;;;2.10;;
58152;SDS011;43967;51.634;5.566;2023-01-28T16:37:40;6.70;;;2.20;;
58152;SDS011;43967;51.634;5.566;2023-01-28T16:42:42;6.32;;;1.90;;
58152;SDS011;43967;51.634;5.566;2023-01-28T16:47:43;8.05;;;2.30;;
58152;SDS011;43967;51.634;5.566;2023-01-28T16:52:45;7.07;;;1.80;;
58152;SDS011;43967;51.634;5.566;2023-01-28T16:57:49;6.18;;;1.90;;
58152;SDS011;43967;51.634;5.566;2023-01-28T17:02:53;6.10;;;1.83;;
58152;SDS011;43967;51.634;5.566;2023-01-28T17:07:54;7.00;;;2.00;;
58152;SDS011;43967;51.634;5.566;2023-01-28T17:12:55;7.05;;;1.77;;
58152;SDS011;43967;51.634;5.566;2023-01-28T17:17:56;6.85;;;2.42;;
58152;SDS011;43967;51.634;5.566;2023-01-28T17:22:57;6.47;;;1.90;;
58152;SDS011;43967;51.634;5.566;2023-01-28T17:27:58;6.90;;;2.10;;
58152;SDS011;43967;51.634;5.566;2023-01-28T17:32:59;6.57;;;1.98;;
58152;SDS011;43967;51.634;5.566;2023-01-28T17:38:01;6.27;;;2.17;;
58152;SDS011;43967;51.634;5.566;2023-01-28T17:43:02;6.27;;;2.20;;
58152;SDS011;43967;51.634;5.566;2023-01-28T17:48:03;6.00;;;2.05;;
58152;SDS011;43967;51.634;5.566;2023-01-28T17:53:04;7.40;;;2.30;;
58152;SDS011;43967;51.634;5.566;2023-01-28T17:58:06;6.67;;;2.60;;
58152;SDS011;43967;51.634;5.566;2023-01-28T18:03:09;6.85;;;2.50;;
58152;SDS011;43967;51.634;5.566;2023-01-28T18:08:12;7.27;;;2.37;;
58152;SDS011;43967;51.634;5.566;2023-01-28T18:13:13;6.57;;;2.20;;
58152;SDS011;43967;51.634;5.566;2023-01-28T18:18:14;6.38;;;2.35;;
58152;SDS011;43967;51.634;5.566;2023-01-28T18:23:15;6.18;;;2.30;;
58152;SDS011;43967;51.634;5.566;2023-01-28T18:28:16;7.83;;;2.50;;
58152;SDS011;43967;51.634;5.566;2023-01-28T18:33:17;7.50;;;3.10;;
58152;SDS011;43967;51.634;5.566;2023-01-28T18:38:19;7.55;;;2.90;;
58152;SDS011;43967;51.634;5.566;2023-01-28T18:43:20;6.70;;;2.60;;
58152;SDS011;43967;51.634;5.566;2023-01-28T18:48:21;6.68;;;2.40;;
58152;SDS011;43967;51.634;5.566;2023-01-28T18:53:22;6.45;;;2.50;;
58152;SDS011;43967;51.634;5.566;2023-01-28T18:58:23;7.37;;;2.67;;
58152;SDS011;43967;51.634;5.566;2023-01-28T19:03:24;7.30;;;2.90;;
58152;SDS011;43967;51.634;5.566;2023-01-28T19:08:25;10.02;;;2.88;;
58152;SDS011;43967;51.634;5.566;2023-01-28T19:13:27;8.35;;;3.20;;
58152;SDS011;43967;51.634;5.566;2023-01-28T19:18:29;7.83;;;2.80;;
58152;SDS011;43967;51.634;5.566;2023-01-28T19:23:30;6.97;;;3.10;;
58152;SDS011;43967;51.634;5.566;2023-01-28T19:28:33;10.50;;;2.90;;
58152;SDS011;43967;51.634;5.566;2023-01-28T19:33:34;7.63;;;3.03;;
58152;SDS011;43967;51.634;5.566;2023-01-28T19:38:35;8.20;;;3.17;;
58152;SDS011;43967;51.634;5.566;2023-01-28T19:43:36;8.07;;;2.80;;
58152;SDS011;43967;51.634;5.566;2023-01-28T19:48:37;9.37;;;3.30;;
58152;SDS011;43967;51.634;5.566;2023-01-28T19:53:39;7.13;;;3.08;;
58152;SDS011;43967;51.634;5.566;2023-01-28T19:58:42;8.57;;;3.20;;
58152;SDS011;43967;51.634;5.566;2023-01-28T20:03:44;7.87;;;3.50;;
58152;SDS011;43967;51.634;5.566;2023-01-28T20:08:51;7.90;;;3.57;;
58152;SDS011;43967;51.634;5.566;2023-01-28T20:13:54;7.78;;;3.30;;
58152;SDS011;43967;51.634;5.566;2023-01-28T20:18:56;9.48;;;3.50;;
58152;SDS011;43967;51.634;5.566;2023-01-28T20:23:59;8.20;;;3.60;;
58152;SDS011;43967;51.634;5.566;2023-01-28T20:29:02;7.90;;;3.90;;
58152;SDS011;43967;51.634;5.566;2023-01-28T20:34:11;8.20;;;4.00;;
58152;SDS011;43967;51.634;5.566;2023-01-28T20:39:22;9.17;;;4.20;;
58152;SDS011;43967;51.634;5.566;2023-01-28T20:44:23;7.45;;;3.60;;
58152;SDS011;43967;51.634;5.566;2023-01-28T20:49:24;8.85;;;4.43;;
58152;SDS011;43967;51.634;5.566;2023-01-28T20:54:25;9.10;;;4.00;;
58152;SDS011;43967;51.634;5.566;2023-01-28T20:59:26;8.80;;;4.67;;
58152;SDS011;43967;51.634;5.566;2023-01-28T21:04:27;9.57;;;4.82;;
58152;SDS011;43967;51.634;5.566;2023-01-28T21:09:28;10.05;;;4.22;;
58152;SDS011;43967;51.634;5.566;2023-01-28T21:14:29;9.33;;;4.30;;
58152;SDS011;43967;51.634;5.566;2023-01-28T21:19:30;8.88;;;5.07;;
58152;SDS011;43967;51.634;5.566;2023-01-28T21:24:31;9.07;;;4.35;;
58152;SDS011;43967;51.634;5.566;2023-01-28T21:29:32;9.40;;;4.10;;
58152;SDS011;43967;51.634;5.566;2023-01-28T21:34:33;9.10;;;4.60;;
58152;SDS011;43967;51.634;5.566;2023-01-28T21:39:34;9.00;;;4.10;;
58152;SDS011;43967;51.634;5.566;2023-01-28T21:44:35;9.00;;;4.40;;
58152;SDS011;43967;51.634;5.566;2023-01-28T21:49:36;10.18;;;4.80;;
58152;SDS011;43967;51.634;5.566;2023-01-28T21:54:37;9.63;;;4.57;;
58152;SDS011;43967;51.634;5.566;2023-01-28T21:59:38;9.00;;;4.27;;
58152;SDS011;43967;51.634;5.566;2023-01-28T22:04:41;9.65;;;4.80;;
58152;SDS011;43967;51.634;5.566;2023-01-28T22:09:43;9.13;;;4.77;;
58152;SDS011;43967;51.634;5.566;2023-01-28T22:14:46;9.10;;;4.67;;
58152;SDS011;43967;51.634;5.566;2023-01-28T22:19:47;9.80;;;5.40;;
58152;SDS011;43967;51.634;5.566;2023-01-28T22:24:48;8.82;;;4.30;;
58152;SDS011;43967;51.634;5.566;2023-01-28T22:29:49;9.43;;;4.70;;
58152;SDS011;43967;51.634;5.566;2023-01-28T22:34:50;8.65;;;4.57;;
58152;SDS011;43967;51.634;5.566;2023-01-28T22:39:51;10.35;;;5.30;;
58152;SDS011;43967;51.634;5.566;2023-01-28T22:44:52;8.83;;;4.93;;
58152;SDS011;43967;51.634;5.566;2023-01-28T22:49:53;8.60;;;4.50;;
58152;SDS011;43967;51.634;5.566;2023-01-28T22:54:54;10.10;;;4.60;;
58152;SDS011;43967;51.634;5.566;2023-01-28T22:59:55;10.03;;;5.53;;
58152;SDS011;43967;51.634;5.566;2023-01-28T23:04:56;9.90;;;5.35;;
58152;SDS011;43967;51.634;5.566;2023-01-28T23:09:57;9.98;;;5.45;;
58152;SDS011;43967;51.634;5.566;2023-01-28T23:14:58;8.63;;;4.90;;
58152;SDS011;43967;51.634;5.566;2023-01-28T23:19:59;10.40;;;4.75;;
58152;SDS011;43967;51.634;5.566;2023-01-28T23:25:00;9.40;;;4.75;;
58152;SDS011;43967;51.634;5.566;2023-01-28T23:30:02;11.13;;;5.33;;
58152;SDS011;43967;51.634;5.566;2023-01-28T23:35:05;9.85;;;5.00;;
58152;SDS011;43967;51.634;5.566;2023-01-28T23:40:07;9.80;;;4.90;;
58152;SDS011;43967;51.634;5.566;2023-01-28T23:45:09;9.60;;;4.93;;
58152;SDS011;43967;51.634;5.566;2023-01-28T23:50:10;10.10;;;5.10;;
58152;SDS011;43967;51.634;5.566;2023-01-28T23:55:11;10.63;;;5.05;;
